createdAt,value
2019-01-11T00:03:57.951Z,24.97
2019-01-11T00:06:23.862Z,23.60
2019-01-11T00:08:49.748Z,26.33
2019-01-11T00:11:15.615Z,25.27
2019-01-11T00:13:41.531Z,26.33
2019-01-11T00:16:07.438Z,24.43
2019-01-11T00:18:33.307Z,24.77
2019-01-11T00:20:59.219Z,25.17
2019-01-11T00:23:25.231Z,25.60
2019-01-11T00:25:51.178Z,24.07
2019-01-11T00:28:17.025Z,24.37
2019-01-11T00:30:42.931Z,23.77
2019-01-11T00:33:08.810Z,22.63
2019-01-11T00:35:34.725Z,23.27
2019-01-11T00:38:00.584Z,22.63
2019-01-11T00:40:26.495Z,22.57
2019-01-11T00:42:52.357Z,22.07
2019-01-11T00:45:18.272Z,22.33
2019-01-11T00:47:44.157Z,22.87
2019-01-11T00:50:10.069Z,20.03
2019-01-11T00:52:36.079Z,20.80
2019-01-11T00:58:03.148Z,19.27
2019-01-11T01:00:29.126Z,20.50
2019-01-11T01:02:55.023Z,21.00
2019-01-11T01:05:20.998Z,19.23
2019-01-11T01:07:47.004Z,20.43
2019-01-11T01:10:12.910Z,19.73
2019-01-11T01:12:38.777Z,21.27
2019-01-11T01:15:46.318Z,19.87
2019-01-11T01:18:12.255Z,19.77
2019-01-11T01:20:38.138Z,20.37
2019-01-11T01:23:04.094Z,20.97
2019-01-11T01:25:29.944Z,19.53
2019-01-11T01:27:55.815Z,22.37
2019-01-11T01:30:21.720Z,20.60
2019-01-11T01:32:47.586Z,20.40
2019-01-11T01:35:13.498Z,20.63
2019-01-11T01:37:39.424Z,20.77
2019-01-11T01:40:46.951Z,21.07
2019-01-11T01:43:12.865Z,22.13
2019-01-11T01:45:38.764Z,21.83
2019-01-11T01:48:04.629Z,22.00
2019-01-11T01:50:30.534Z,21.37
2019-01-11T01:52:56.414Z,22.30
2019-01-11T01:55:22.271Z,21.60
2019-01-11T02:00:21.860Z,21.27
2019-01-11T02:02:47.732Z,21.73
2019-01-11T02:08:01.043Z,19.13
2019-01-11T02:10:26.897Z,19.97
2019-01-11T02:12:52.823Z,20.27
2019-01-11T02:15:18.713Z,19.97
2019-01-11T02:17:44.608Z,19.37
2019-01-11T02:20:52.176Z,19.87
2019-01-11T02:23:18.240Z,20.03
2019-01-11T02:25:46.230Z,21.60
2019-01-11T02:28:11.954Z,20.43
2019-01-11T02:30:37.854Z,20.07
2019-01-11T02:33:03.765Z,20.60
2019-01-11T02:35:29.641Z,21.40
2019-01-11T02:37:55.661Z,19.87
2019-01-11T02:40:21.529Z,20.67
2019-01-11T02:42:47.426Z,21.37
2019-01-11T02:45:54.964Z,20.03
2019-01-11T02:48:20.840Z,19.73
2019-01-11T02:51:06.596Z,19.40
2019-01-11T02:56:33.530Z,19.93
2019-01-11T02:58:59.424Z,19.43
2019-01-11T03:01:25.295Z,19.30
2019-01-11T03:03:51.200Z,20.53
2019-01-11T03:06:17.068Z,19.83
2019-01-11T03:08:42.968Z,19.63
2019-01-11T03:11:08.832Z,19.63
2019-01-11T03:13:34.737Z,21.23
2019-01-11T03:16:00.633Z,19.57
2019-01-11T03:18:26.634Z,20.40
2019-01-11T03:20:52.501Z,20.40
2019-01-11T03:23:18.445Z,19.17
2019-01-11T03:25:44.308Z,20.10
2019-01-11T03:28:10.206Z,19.23
2019-01-11T03:30:36.075Z,20.53
2019-01-11T03:33:01.945Z,20.60
2019-01-11T03:35:27.844Z,20.90
2019-01-11T03:37:53.699Z,20.37
2019-01-11T03:41:01.232Z,20.13
2019-01-11T03:43:27.133Z,20.47
2019-01-11T03:45:53.042Z,19.93
2019-01-11T03:48:19.017Z,19.90
2019-01-11T03:50:44.910Z,20.83
2019-01-11T03:53:10.782Z,20.60
2019-01-11T03:55:36.691Z,19.43
2019-01-11T03:58:22.568Z,19.10
2019-01-11T04:00:48.531Z,19.60
2019-01-11T04:03:14.403Z,19.13
2019-01-11T04:05:40.275Z,20.60
2019-01-11T04:08:06.192Z,19.37
2019-01-11T04:10:32.051Z,20.50
2019-01-11T04:12:57.970Z,19.93
2019-01-11T04:15:23.845Z,19.83
2019-01-11T04:18:09.621Z,18.73
2019-01-11T04:20:35.524Z,18.07
2019-01-11T04:23:01.427Z,18.83
2019-01-11T04:25:27.456Z,19.53
2019-01-11T04:30:40.752Z,19.57
2019-01-11T04:33:06.658Z,20.63
2019-01-11T04:35:32.569Z,19.50
2019-01-11T04:38:18.431Z,18.43
2019-01-11T04:40:44.317Z,19.80
2019-01-11T04:43:10.232Z,18.23
2019-01-11T04:45:36.156Z,19.30
2019-01-11T04:48:02.018Z,17.73
2019-01-11T04:50:27.912Z,18.60
2019-01-11T04:52:53.947Z,17.90
2019-01-11T04:58:07.237Z,17.90
2019-01-11T05:00:33.095Z,17.07
2019-01-11T05:02:58.998Z,17.23
2019-01-11T05:05:24.873Z,17.13
2019-01-11T05:07:50.780Z,16.20
2019-01-11T05:10:16.743Z,16.60
2019-01-11T05:12:42.661Z,17.13
2019-01-11T05:15:08.527Z,16.20
2019-01-11T05:17:34.461Z,15.77
2019-01-11T05:20:00.392Z,16.27
2019-01-11T05:22:26.337Z,17.00
2019-01-11T05:27:30.027Z,17.23
2019-01-11T05:29:55.903Z,16.03
2019-01-11T05:32:21.797Z,16.93
2019-01-11T05:34:47.769Z,17.33
2019-01-11T05:37:13.659Z,17.00
2019-01-11T05:39:39.578Z,16.37
2019-01-11T05:42:05.545Z,16.07
2019-01-11T05:44:31.438Z,17.17
2019-01-11T05:46:57.304Z,15.83
2019-01-11T05:49:23.212Z,18.93
2019-01-11T05:51:49.070Z,16.90
2019-01-11T05:57:08.480Z,16.70
2019-01-11T05:59:34.446Z,16.77
2019-01-11T06:02:00.333Z,16.80
2019-01-11T06:04:46.067Z,16.60
2019-01-11T06:07:31.877Z,17.47
2019-01-11T06:09:57.772Z,16.50
2019-01-11T06:12:23.799Z,17.33
2019-01-11T06:14:49.699Z,18.57
2019-01-11T06:17:15.575Z,18.77
2019-01-11T06:19:41.481Z,16.63
2019-01-11T06:22:07.395Z,18.00
2019-01-11T06:24:33.258Z,19.53
2019-01-11T06:26:59.156Z,19.63
2019-01-11T06:29:25.023Z,19.10
2019-01-11T06:31:51.134Z,19.80
2019-01-11T06:34:17.013Z,22.67
2019-01-11T06:36:42.903Z,19.77
2019-01-11T06:39:08.924Z,22.27
2019-01-11T06:41:54.645Z,19.97
2019-01-11T06:44:20.575Z,21.07
2019-01-11T06:46:46.666Z,21.63
2019-01-11T06:49:12.558Z,20.37
2019-01-11T06:51:38.435Z,19.73
2019-01-11T06:54:04.352Z,20.57
2019-01-11T06:56:30.225Z,21.57
2019-01-11T06:58:56.148Z,21.97
2019-01-11T07:01:22.003Z,22.73
2019-01-11T07:03:47.914Z,22.47
2019-01-11T07:06:13.789Z,22.83
2019-01-11T07:08:39.759Z,21.10
2019-01-11T07:11:05.651Z,22.53
2019-01-11T07:13:31.534Z,24.27
2019-01-11T07:15:57.542Z,24.47
2019-01-11T07:18:23.412Z,24.70
2019-01-11T07:20:49.319Z,23.53
2019-01-11T07:23:15.188Z,23.00
2019-01-11T07:25:41.137Z,24.77
2019-01-11T07:28:13.536Z,24.33
2019-01-11T07:38:23.988Z,24.77
2019-01-11T07:40:49.866Z,24.80
2019-01-11T07:43:15.773Z,27.40
2019-01-11T07:45:41.638Z,26.43
2019-01-11T07:48:07.534Z,25.73
2019-01-11T07:50:33.415Z,27.87
2019-01-11T07:52:59.315Z,27.60
2019-01-11T07:55:25.205Z,27.23
2019-01-11T07:57:51.299Z,27.33
2019-01-11T08:00:17.317Z,28.60
2019-01-11T08:02:43.237Z,27.23
2019-01-11T08:05:09.097Z,28.53
2019-01-11T08:07:34.997Z,28.23
2019-01-11T08:13:21.888Z,28.40
2019-01-11T08:15:47.803Z,29.07
2019-01-11T08:18:13.667Z,28.00
2019-01-11T08:20:39.578Z,29.37
2019-01-11T08:23:05.482Z,27.87
2019-01-11T08:25:31.428Z,27.40
2019-01-11T08:27:57.304Z,27.47
2019-01-11T08:30:23.217Z,26.93
2019-01-11T08:32:49.124Z,25.23
2019-01-11T08:38:00.650Z,25.97
2019-01-11T08:40:26.556Z,26.00
2019-01-11T08:42:52.439Z,26.73
2019-01-11T08:45:18.360Z,28.27
2019-01-11T08:47:44.230Z,25.47
2019-01-11T08:50:30.022Z,26.73
2019-01-11T08:58:15.850Z,25.83
2019-01-11T09:03:19.570Z,26.27
2019-01-11T09:05:45.478Z,26.20
2019-01-11T09:08:11.358Z,26.17
2019-01-11T09:13:10.748Z,26.97
2019-01-11T09:15:36.644Z,26.30
2019-01-11T09:21:11.366Z,26.93
2019-01-11T09:23:37.844Z,23.83
2019-01-11T09:26:03.911Z,26.13
2019-01-11T09:28:29.783Z,25.83
2019-01-11T09:30:55.644Z,26.53
2019-01-11T09:33:21.599Z,25.40
2019-01-11T09:35:47.603Z,26.50
2019-01-11T09:40:47.487Z,25.37
2019-01-11T09:43:13.371Z,25.93
2019-01-11T09:45:39.267Z,24.07
2019-01-11T09:48:05.175Z,25.20
2019-01-11T09:50:31.080Z,27.43
2019-01-11T09:52:56.951Z,24.00
2019-01-11T09:55:22.859Z,26.77
2019-01-11T09:57:48.732Z,24.60
2019-01-11T10:00:59.268Z,26.27
2019-01-11T10:03:24.084Z,25.07
2019-01-11T10:05:49.984Z,25.93
2019-01-11T10:08:15.864Z,25.10
2019-01-11T10:11:01.789Z,25.27
2019-01-11T10:13:27.699Z,25.53
2019-01-11T10:15:53.543Z,25.47
2019-01-11T10:18:19.420Z,26.67
2019-01-11T10:23:19.073Z,24.47
2019-01-11T10:25:45.116Z,24.73
2019-01-11T10:28:10.988Z,25.43
2019-01-11T10:30:36.996Z,25.77
2019-01-11T10:33:03.014Z,23.37
2019-01-11T10:35:28.923Z,23.83
2019-01-11T10:37:54.901Z,22.53
2019-01-11T10:40:20.806Z,22.40
2019-01-11T10:42:46.823Z,23.30
2019-01-11T10:48:26.620Z,21.53
2019-01-11T10:50:52.524Z,22.47
2019-01-11T10:53:38.374Z,20.90
2019-01-11T10:56:04.268Z,19.70
2019-01-11T10:58:30.231Z,20.33
2019-01-11T11:00:56.147Z,20.30
2019-01-11T11:03:22.007Z,20.00
2019-01-11T11:05:47.916Z,20.53
2019-01-11T11:08:13.781Z,18.30
2019-01-11T11:10:39.699Z,20.83
2019-01-11T11:13:05.699Z,20.00
2019-01-11T11:15:31.797Z,20.67
2019-01-11T11:17:57.699Z,20.60
2019-01-11T11:20:23.583Z,20.90
2019-01-11T11:22:49.589Z,21.23
2019-01-11T11:25:27.990Z,20.93
2019-01-11T11:27:53.897Z,20.93
2019-01-11T11:30:19.813Z,20.27
2019-01-11T11:33:05.555Z,21.30
2019-01-11T11:35:31.499Z,21.33
2019-01-11T11:37:57.398Z,21.97
2019-01-11T11:40:23.270Z,21.67
2019-01-11T11:45:34.794Z,19.87
2019-01-11T11:48:00.662Z,20.70
2019-01-11T11:50:26.576Z,18.80
2019-01-11T11:52:52.448Z,18.13
2019-01-11T11:55:18.351Z,17.90
2019-01-11T11:57:44.239Z,16.87
2019-01-11T12:00:51.771Z,16.60
2019-01-11T12:03:17.846Z,16.23
2019-01-11T12:05:43.721Z,15.97
2019-01-11T12:08:09.600Z,16.47
2019-01-11T12:10:35.517Z,16.23
2019-01-11T12:13:01.422Z,16.13
2019-01-11T12:15:27.368Z,15.60
2019-01-11T12:17:53.264Z,14.97
2019-01-11T12:21:00.827Z,14.50
2019-01-11T12:23:26.741Z,13.53
2019-01-11T12:25:52.837Z,13.63
2019-01-11T12:28:18.715Z,13.90
2019-01-11T12:30:44.649Z,14.20
2019-01-11T12:33:10.727Z,14.17
2019-01-11T12:35:36.612Z,14.03
2019-01-11T12:38:02.508Z,13.37
2019-01-11T12:40:28.385Z,13.20
2019-01-11T12:42:54.398Z,12.33
2019-01-11T12:45:20.278Z,12.57
2019-01-11T12:47:46.193Z,12.60
2019-01-11T12:50:31.957Z,13.50
2019-01-11T12:52:57.919Z,12.57
2019-01-11T12:55:23.781Z,14.93
2019-01-11T12:57:49.743Z,14.03
2019-01-11T13:03:29.318Z,14.13
2019-01-11T13:05:55.184Z,14.47
2019-01-11T13:08:21.099Z,14.03
2019-01-11T13:10:46.987Z,13.93
2019-01-11T13:13:12.906Z,14.37
2019-01-11T13:15:38.861Z,15.73
2019-01-11T13:18:04.775Z,15.57
2019-01-11T13:20:30.630Z,16.63
2019-01-11T13:22:56.622Z,17.27
2019-01-11T13:25:22.491Z,17.30
2019-01-11T13:27:48.356Z,18.33
2019-01-11T13:30:55.892Z,18.73
2019-01-11T13:33:35.019Z,18.53
2019-01-11T13:36:00.984Z,17.70
2019-01-11T13:38:26.858Z,18.03
2019-01-11T13:40:52.770Z,17.87
2019-01-11T13:43:18.627Z,18.17
2019-01-11T13:45:44.644Z,17.50
2019-01-11T13:48:10.505Z,17.67
2019-01-11T13:51:18.078Z,16.77
2019-01-11T13:53:43.993Z,18.20
2019-01-11T13:56:09.922Z,18.53
2019-01-11T13:58:35.771Z,17.37
2019-01-11T14:01:01.681Z,18.23
2019-01-11T14:03:27.599Z,18.23
2019-01-11T14:05:53.496Z,17.97
2019-01-11T14:08:19.417Z,17.53
2019-01-11T14:10:45.289Z,18.03
2019-01-11T14:13:11.308Z,18.67
2019-01-11T14:15:37.187Z,19.37
2019-01-11T14:18:03.104Z,18.63
2019-01-11T14:20:29.014Z,17.50
2019-01-11T14:23:01.869Z,18.70
2019-01-11T14:25:27.780Z,15.77
2019-01-11T14:27:53.676Z,17.73
2019-01-11T14:30:19.588Z,17.63
2019-01-11T14:32:45.478Z,16.20
2019-01-11T14:35:11.380Z,14.03
2019-01-11T14:37:37.298Z,12.83
2019-01-11T14:43:16.785Z,11.53
2019-01-11T14:45:42.669Z,9.57
2019-01-11T14:48:08.600Z,7.90
2019-01-11T14:50:34.460Z,6.30
2019-01-11T14:53:00.368Z,6.60
2019-01-11T14:55:26.259Z,6.00
2019-01-11T14:57:52.166Z,5.93
2019-01-11T15:00:59.708Z,6.50
2019-01-11T15:03:25.650Z,6.27
2019-01-11T15:05:51.538Z,5.73
2019-01-11T15:08:17.478Z,5.10
2019-01-11T15:10:43.355Z,4.00
2019-01-11T15:13:09.258Z,4.20
2019-01-11T15:15:35.189Z,4.20
2019-01-11T15:18:01.044Z,4.00
2019-01-11T15:20:26.954Z,3.80
2019-01-11T15:22:52.853Z,4.07
2019-01-11T15:25:18.755Z,4.37
2019-01-11T15:27:44.767Z,4.60
2019-01-11T15:30:52.327Z,4.70
2019-01-11T15:33:18.231Z,4.83
2019-01-11T15:35:44.104Z,5.50
2019-01-11T15:40:43.931Z,3.80
2019-01-11T15:43:09.816Z,3.60
2019-01-11T15:45:35.721Z,3.57
2019-01-11T15:48:01.649Z,3.50
2019-01-11T15:51:09.177Z,3.43
2019-01-11T15:53:35.281Z,3.30
2019-01-11T15:58:32.924Z,3.30
2019-01-11T16:00:58.798Z,4.03
2019-01-11T16:03:24.646Z,3.30
2019-01-11T16:09:33.407Z,3.67
2019-01-11T16:12:19.254Z,3.30
2019-01-11T16:15:24.968Z,3.20
2019-01-11T16:21:01.234Z,3.70
2019-01-11T16:23:27.144Z,3.77
2019-01-11T16:25:53.216Z,4.63
2019-01-11T16:28:19.189Z,3.53
2019-01-11T16:30:45.106Z,3.33
2019-01-11T16:33:10.997Z,3.30
2019-01-11T16:35:36.907Z,2.80
2019-01-11T16:41:16.699Z,2.80
2019-01-11T16:43:42.572Z,3.57
2019-01-11T16:46:08.486Z,3.30
2019-01-11T16:48:34.406Z,3.70
2019-01-11T16:51:00.291Z,3.10
2019-01-11T16:53:26.221Z,3.33
2019-01-11T16:55:52.099Z,3.23
2019-01-11T16:58:18.006Z,3.30
2019-01-11T17:00:43.897Z,3.30
2019-01-11T17:03:09.793Z,4.10
2019-01-11T17:05:35.670Z,4.00
2019-01-11T17:08:01.559Z,3.80
2019-01-11T17:10:27.444Z,3.67
2019-01-11T17:12:53.359Z,4.03
2019-01-11T17:15:19.232Z,4.03
2019-01-11T17:17:45.140Z,3.70
2019-01-11T17:20:52.647Z,4.37
2019-01-11T17:23:18.598Z,5.73
2019-01-11T17:25:44.457Z,4.10
2019-01-11T17:28:10.384Z,4.23
2019-01-11T17:30:36.308Z,7.97
2019-01-11T17:33:02.179Z,4.13
2019-01-11T17:35:28.089Z,4.17
2019-01-11T17:37:53.947Z,5.70
2019-01-11T17:40:19.863Z,4.70
2019-01-11T17:42:45.744Z,3.90
2019-01-11T17:45:11.644Z,4.00
2019-01-11T17:47:37.548Z,4.13
2019-01-11T17:50:45.068Z,4.33
2019-01-11T17:53:10.969Z,4.23
2019-01-11T17:55:36.888Z,4.23
2019-01-11T17:58:02.945Z,3.20
2019-01-11T18:00:28.841Z,3.70
2019-01-11T18:02:54.732Z,4.30
2019-01-11T18:06:03.662Z,3.90
2019-01-11T18:08:30.105Z,3.60
2019-01-11T18:10:55.985Z,3.60
2019-01-11T18:13:21.897Z,4.00
2019-01-11T18:15:47.759Z,3.87
2019-01-11T18:18:13.677Z,4.20
2019-01-11T18:20:39.554Z,3.50
2019-01-11T18:23:07.089Z,3.63
2019-01-11T18:25:33.255Z,3.60
2019-01-11T18:27:59.154Z,4.20
2019-01-11T18:30:25.070Z,5.30
2019-01-11T18:32:50.970Z,4.00
2019-01-11T18:35:16.865Z,3.57
2019-01-11T18:37:42.850Z,4.43
2019-01-11T18:40:28.618Z,3.87
2019-01-11T18:42:54.649Z,4.03
2019-01-11T18:45:20.570Z,3.30
2019-01-11T18:47:46.458Z,4.57
2019-01-11T18:50:53.982Z,4.60
2019-01-11T18:53:19.907Z,4.17
2019-01-11T18:55:45.858Z,4.90
2019-01-11T18:58:11.714Z,5.00
2019-01-11T19:00:57.474Z,4.93
2019-01-11T19:03:23.444Z,4.20
2019-01-11T19:05:49.406Z,4.70
2019-01-11T19:08:15.498Z,5.20
2019-01-11T19:10:41.396Z,5.27
2019-01-11T19:13:07.284Z,4.40
2019-01-11T19:15:33.204Z,4.87
2019-01-11T19:17:59.074Z,4.67
2019-01-11T19:21:06.609Z,5.03
2019-01-11T19:23:32.712Z,5.27
2019-01-11T19:25:58.595Z,5.87
2019-01-11T19:28:24.540Z,4.70
2019-01-11T19:30:50.418Z,4.70
2019-01-11T19:33:16.332Z,5.23
2019-01-11T19:35:42.285Z,4.13
2019-01-11T19:38:08.265Z,5.00
2019-01-11T19:40:34.125Z,6.70
2019-01-11T19:43:00.042Z,4.93
2019-01-11T19:45:25.904Z,5.10
2019-01-11T19:47:51.778Z,5.00
2019-01-11T19:50:59.301Z,4.40
2019-01-11T19:53:27.727Z,5.57
2019-01-11T19:55:58.761Z,5.30
2019-01-11T19:58:20.956Z,5.10
2019-01-11T20:00:46.920Z,5.50
2019-01-11T20:03:12.833Z,5.17
2019-01-11T20:05:38.758Z,5.53
2019-01-11T20:08:04.625Z,5.27
2019-01-11T20:10:30.544Z,5.37
2019-01-11T20:12:56.432Z,4.57
2019-01-11T20:15:22.427Z,5.60
2019-01-11T20:17:48.355Z,5.57
2019-01-11T20:20:14.356Z,6.20
2019-01-11T20:22:40.233Z,5.53
2019-01-11T20:25:47.764Z,5.77
2019-01-11T20:28:13.668Z,5.63
2019-01-11T20:30:59.462Z,5.67
2019-01-11T20:33:25.378Z,6.27
2019-01-11T20:35:51.286Z,6.17
2019-01-11T20:38:17.194Z,8.40
2019-01-11T20:40:43.088Z,7.07
2019-01-11T20:45:42.720Z,5.00
2019-01-11T20:48:08.623Z,7.27
2019-01-11T20:50:34.506Z,5.90
2019-01-11T20:53:00.423Z,6.03
2019-01-11T20:55:26.292Z,6.30
2019-01-11T20:57:52.226Z,5.93
2019-01-11T21:00:59.723Z,5.97
2019-01-11T21:03:25.665Z,6.03
2019-01-11T21:05:51.550Z,6.00
2019-01-11T21:08:17.476Z,6.13
2019-01-11T21:10:43.358Z,5.23
2019-01-11T21:13:09.273Z,6.27
2019-01-11T21:15:35.171Z,6.30
2019-01-11T21:18:01.051Z,5.97
2019-01-11T21:20:26.963Z,5.87
2019-01-11T21:22:52.873Z,6.43
2019-01-11T21:28:32.206Z,5.90
2019-01-11T21:30:58.081Z,6.63
2019-01-11T21:33:23.979Z,5.73
2019-01-11T21:35:49.885Z,6.23
2019-01-11T21:38:15.787Z,6.07
2019-01-11T21:40:41.668Z,5.37
2019-01-11T21:43:07.589Z,6.70
2019-01-11T21:45:33.437Z,6.83
2019-01-11T21:47:59.350Z,6.77
2019-01-11T21:50:25.218Z,6.43
2019-01-11T21:52:51.132Z,6.43
2019-01-11T21:55:17.005Z,6.80
2019-01-11T21:58:24.542Z,6.97
2019-01-11T22:00:50.648Z,6.47
2019-01-11T22:03:16.507Z,5.90
2019-01-11T22:05:42.373Z,6.63
2019-01-11T22:08:08.278Z,6.40
2019-01-11T22:10:34.172Z,7.20
2019-01-11T22:13:00.070Z,6.27
2019-01-11T22:15:25.958Z,6.33
2019-01-11T22:17:51.864Z,5.93
2019-01-11T22:20:17.730Z,7.10
2019-01-11T22:22:43.656Z,6.70
2019-01-11T22:25:51.191Z,6.73
2019-01-11T22:28:17.173Z,6.43
2019-01-11T22:30:43.421Z,8.40
2019-01-11T22:33:10.913Z,7.07
2019-01-11T22:35:36.839Z,7.83
2019-01-11T22:38:02.773Z,7.10
2019-01-11T22:40:28.714Z,7.57
2019-01-11T22:43:36.284Z,7.27
2019-01-11T22:46:02.190Z,6.57
2019-01-11T22:48:28.120Z,6.33
2019-01-11T22:50:54.024Z,6.73
2019-01-11T22:53:19.898Z,6.17
2019-01-11T22:55:45.822Z,8.57
2019-01-11T22:58:11.704Z,7.03
2019-01-11T23:01:19.229Z,7.53
2019-01-11T23:03:45.159Z,7.57
2019-01-11T23:06:52.689Z,8.00
2019-01-11T23:09:18.678Z,7.40
2019-01-11T23:12:24.335Z,7.50
2019-01-11T23:14:50.297Z,7.90
2019-01-11T23:17:57.788Z,7.10
2019-01-11T23:20:23.743Z,8.13
2019-01-11T23:22:49.608Z,7.23
2019-01-11T23:25:15.516Z,7.20
2019-01-11T23:27:41.426Z,7.70
2019-01-11T23:33:21.516Z,6.73
2019-01-11T23:35:47.425Z,7.90
2019-01-11T23:38:13.338Z,7.67
2019-01-11T23:40:39.206Z,6.80
2019-01-11T23:43:05.122Z,7.57
2019-01-11T23:45:31.008Z,7.60
2019-01-11T23:47:56.916Z,8.03
2019-01-11T23:50:22.816Z,8.60
2019-01-11T23:52:48.707Z,7.33
2019-01-11T23:55:14.632Z,6.87
2019-01-11T23:57:40.499Z,8.13
